createdAt,value
2022-07-28T00:00:52.405Z,7.3
2022-07-28T00:06:42.052Z,7.7
2022-07-28T00:11:54.536Z,7.6
2022-07-28T00:16:59.187Z,7.6
2022-07-28T00:22:42.064Z,7.6
2022-07-28T00:27:42.116Z,7.2
2022-07-28T00:32:52.365Z,7.2
2022-07-28T00:38:02.655Z,7.2
2022-07-28T00:43:42.058Z,7
2022-07-28T00:48:42.087Z,6.9
2022-07-28T00:53:52.336Z,7
2022-07-28T00:58:52.362Z,7.2
2022-07-28T01:03:52.375Z,7.3
2022-07-28T01:08:52.433Z,7.5
2022-07-28T01:14:42.098Z,7.1
2022-07-28T01:19:52.415Z,6.9
2022-07-28T01:25:48.798Z,6.7
2022-07-28T01:30:52.379Z,6.5
2022-07-28T01:35:52.376Z,6.3
2022-07-28T01:40:52.376Z,6.1
2022-07-28T01:45:52.379Z,6.2
2022-07-28T01:50:52.390Z,5.7
2022-07-28T01:55:52.457Z,5.7
2022-07-28T02:01:42.172Z,5.8
2022-07-28T02:06:52.380Z,5.7
2022-07-28T02:12:42.091Z,5.6
2022-07-28T02:17:42.157Z,5.2
2022-07-28T02:22:52.393Z,5.3
2022-07-28T02:28:42.078Z,4.9
2022-07-28T02:33:59.150Z,4.8
2022-07-28T02:38:42.213Z,4.9
2022-07-28T02:43:52.381Z,4.4
2022-07-28T02:48:52.501Z,4.5
2022-07-28T02:54:42.065Z,4.3
2022-07-28T02:59:42.078Z,4.4
2022-07-28T03:04:42.212Z,4.2
2022-07-28T03:09:52.366Z,4.5
2022-07-28T03:14:52.391Z,4.2
2022-07-28T03:20:52.392Z,4.3
2022-07-28T03:26:42.092Z,4.4
2022-07-28T03:31:42.088Z,4.9
2022-07-28T03:36:42.094Z,4.9
2022-07-28T03:41:42.095Z,4.9
2022-07-28T03:46:52.433Z,5
2022-07-28T03:52:52.395Z,4.6
2022-07-28T03:57:52.410Z,4.9
2022-07-28T04:03:43.595Z,5
2022-07-28T04:08:42.108Z,4.3
2022-07-28T04:13:52.357Z,4.5
2022-07-28T04:18:52.406Z,4.2
2022-07-28T04:24:42.081Z,4.5
2022-07-28T04:29:42.103Z,4.5
2022-07-28T04:34:42.123Z,4.8
2022-07-28T04:39:52.405Z,4.5
2022-07-28T04:45:53.372Z,4.2
2022-07-28T04:50:42.119Z,4.1
2022-07-28T04:55:42.149Z,4.5
2022-07-28T05:00:52.772Z,4.6
2022-07-28T05:06:42.103Z,4.6
2022-07-28T05:11:52.751Z,4.5
2022-07-28T05:16:52.515Z,4.7
2022-07-28T05:22:42.111Z,4.8
2022-07-28T05:27:52.394Z,5.2
2022-07-28T05:33:42.120Z,5.8
2022-07-28T05:38:52.413Z,6.1
2022-07-28T05:44:42.129Z,6.4
2022-07-28T05:49:52.411Z,6.8
2022-07-28T05:56:00.450Z,6.5
2022-07-28T06:00:42.187Z,6.8
2022-07-28T06:05:59.380Z,7.4
2022-07-28T06:10:52.404Z,8.9
2022-07-28T06:15:52.451Z,10.3
2022-07-28T06:21:42.122Z,11.1
2022-07-28T06:26:52.431Z,12.3
2022-07-28T06:31:52.491Z,12.9
2022-07-28T06:37:42.240Z,13.2
2022-07-28T06:42:42.136Z,13.2
2022-07-28T06:47:52.419Z,14.4
2022-07-28T06:52:52.442Z,14.4
2022-07-28T06:58:42.133Z,15.4
2022-07-28T07:03:42.269Z,15.3
2022-07-28T07:08:52.430Z,17.2
2022-07-28T07:13:52.438Z,16.2
2022-07-28T07:19:42.132Z,16.3
2022-07-28T07:24:42.143Z,18.1
2022-07-28T07:29:52.418Z,17.2
2022-07-28T07:34:52.448Z,16.5
2022-07-28T07:40:42.146Z,17.9
2022-07-28T07:45:42.142Z,18.3
2022-07-28T07:50:54.139Z,17.4
2022-07-28T07:55:52.437Z,18.9
2022-07-28T08:00:52.451Z,19.5
2022-07-28T08:05:52.460Z,20.3
2022-07-28T08:11:42.161Z,19.9
2022-07-28T08:16:42.243Z,21.2
2022-07-28T08:21:42.166Z,20.6
2022-07-28T08:26:52.454Z,19.8
2022-07-28T08:31:52.537Z,20.5
2022-07-28T08:37:42.187Z,21.8
2022-07-28T08:42:52.500Z,20.8
2022-07-28T08:48:42.215Z,20.4
2022-07-28T08:53:42.178Z,22.3
2022-07-28T08:58:52.486Z,21.5
2022-07-28T09:04:42.178Z,21.5
2022-07-28T09:09:42.200Z,21.7
2022-07-28T09:14:42.201Z,21.5
2022-07-28T09:19:52.489Z,20.8
2022-07-28T09:25:42.200Z,21.8
2022-07-28T09:30:54.160Z,22.3
2022-07-28T09:36:42.193Z,23.4
2022-07-28T09:41:42.202Z,23.4
2022-07-28T09:46:42.344Z,23.4
2022-07-28T09:51:42.208Z,24.2
2022-07-28T09:56:52.495Z,24
2022-07-28T10:02:42.267Z,23
2022-07-28T10:07:52.496Z,22.8
2022-07-28T10:12:52.508Z,23.2
2022-07-28T10:18:42.234Z,21.9
2022-07-28T10:23:42.220Z,21.5
2022-07-28T10:28:42.531Z,21.3
2022-07-28T10:33:52.538Z,21.6
2022-07-28T10:39:42.240Z,22.6
2022-07-28T10:44:42.251Z,23
2022-07-28T10:49:52.505Z,22.7
2022-07-28T10:55:42.219Z,22.8
2022-07-28T11:00:55.391Z,22.5
2022-07-28T11:05:42.232Z,21.9
2022-07-28T11:10:56.273Z,22.8
2022-07-28T11:16:42.285Z,22.3
2022-07-28T11:21:52.944Z,21.1
2022-07-28T11:26:52.541Z,21.5
2022-07-28T11:31:52.549Z,21.2
2022-07-28T11:37:42.249Z,21.1
2022-07-28T11:42:52.527Z,21.1
2022-07-28T11:47:52.545Z,21.3
2022-07-28T11:52:52.550Z,22
2022-07-28T11:58:42.281Z,21.1
2022-07-28T12:03:50.178Z,20.5
2022-07-28T12:08:52.581Z,20.3
2022-07-28T12:14:42.338Z,20.4
2022-07-28T12:19:52.559Z,20.2
2022-07-28T12:25:42.271Z,19.1
2022-07-28T12:30:52.553Z,20
2022-07-28T12:36:42.272Z,20.3
2022-07-28T12:41:42.295Z,20.5
2022-07-28T12:46:42.308Z,19.9
2022-07-28T12:51:52.605Z,19.1
2022-07-28T12:57:48.784Z,19.8
2022-07-28T13:02:42.365Z,19.6
2022-07-28T13:07:52.601Z,19.9
2022-07-28T13:12:52.666Z,19.5
2022-07-28T13:18:42.290Z,19.4
2022-07-28T13:23:42.304Z,19.7
2022-07-28T13:28:42.306Z,19
2022-07-28T13:33:52.597Z,19
2022-07-28T13:39:42.294Z,19.1
2022-07-28T13:44:42.319Z,19.1
2022-07-28T13:49:52.626Z,19.6
2022-07-28T13:54:52.606Z,18.4
2022-07-28T14:00:42.387Z,19.5
2022-07-28T14:05:52.620Z,18.4
2022-07-28T14:10:52.620Z,18.9
2022-07-28T14:16:42.454Z,18.4
2022-07-28T14:21:42.345Z,19
2022-07-28T14:26:42.344Z,19.3
2022-07-28T14:31:52.744Z,18.1
2022-07-28T14:42:52.615Z,18.2
2022-07-28T14:48:42.461Z,18.3
2022-07-28T14:53:52.644Z,18.5
2022-07-28T14:59:42.349Z,17.6
2022-07-28T15:04:42.416Z,17.3
2022-07-28T15:09:52.647Z,18.5
2022-07-28T15:14:52.676Z,18.4
2022-07-28T15:20:42.362Z,19
2022-07-28T15:25:52.653Z,18.3
2022-07-28T15:30:52.963Z,18.3
2022-07-28T15:35:56.550Z,17.8
2022-07-28T15:41:42.394Z,18.2
2022-07-28T15:46:52.734Z,18.1
2022-07-28T15:51:52.654Z,17.8
2022-07-28T15:56:52.664Z,17.6
2022-07-28T16:02:42.436Z,17.9
2022-07-28T16:07:45.111Z,17.8
2022-07-28T16:12:42.380Z,17.6
2022-07-28T16:17:42.403Z,17.6
2022-07-28T16:22:42.416Z,17.2
2022-07-28T16:27:52.657Z,17.4
2022-07-28T16:32:52.679Z,17.3
2022-07-28T16:37:52.675Z,17.2
2022-07-28T16:42:52.688Z,17.2
2022-07-28T16:47:52.683Z,17.2
2022-07-28T16:52:52.686Z,17.2
2022-07-28T16:57:52.701Z,16.6
2022-07-28T17:03:42.419Z,16.9
2022-07-28T17:08:52.666Z,16.4
2022-07-28T17:13:52.696Z,16.3
2022-07-28T17:19:46.602Z,16.6
2022-07-28T17:24:52.674Z,16.1
2022-07-28T17:29:52.720Z,16.1
2022-07-28T17:35:42.446Z,15.1
2022-07-28T17:40:42.422Z,14.7
2022-07-28T17:45:42.430Z,14.7
2022-07-28T17:50:52.715Z,14.6
2022-07-28T17:56:42.405Z,14.9
2022-07-28T18:01:45.525Z,14.8
2022-07-28T18:06:42.435Z,14.5
2022-07-28T18:11:56.692Z,14.2
2022-07-28T18:16:52.716Z,14
2022-07-28T18:22:42.438Z,13.9
2022-07-28T18:27:42.469Z,13.9
2022-07-28T18:32:52.727Z,13.9
2022-07-28T18:38:42.437Z,13.6
2022-07-28T18:43:52.714Z,13.5
2022-07-28T18:49:42.476Z,13.6
2022-07-28T18:54:42.444Z,13.6
2022-07-28T18:59:45.601Z,13.3
2022-07-28T19:04:52.722Z,13.4
2022-07-28T19:09:52.743Z,13.4
2022-07-28T19:14:52.762Z,13.1
2022-07-28T19:20:42.450Z,13.1
2022-07-28T19:25:42.514Z,13.3
2022-07-28T19:30:52.781Z,13.1
2022-07-28T19:35:52.752Z,13.1
2022-07-28T19:41:42.492Z,13.2
2022-07-28T19:46:52.723Z,13.1
2022-07-28T19:51:52.748Z,13.1
2022-07-28T19:56:52.759Z,12.9
2022-07-28T20:02:42.615Z,12.9
2022-07-28T20:07:52.735Z,12.6
2022-07-28T20:13:42.473Z,12.5
2022-07-28T20:18:42.467Z,12.5
2022-07-28T20:23:52.741Z,12.1
2022-07-28T20:28:52.766Z,12.1
2022-07-28T20:33:52.894Z,11.7
2022-07-28T20:38:52.769Z,11.9
2022-07-28T20:44:18.351Z,11.5
2022-07-28T20:49:42.496Z,11.6
2022-07-28T20:54:54.861Z,11.6
2022-07-28T21:00:42.488Z,11.5
2022-07-28T21:05:42.498Z,11.5
2022-07-28T21:10:42.497Z,11.3
2022-07-28T21:15:52.843Z,11.2
2022-07-28T21:20:52.845Z,11.1
2022-07-28T21:25:52.839Z,11.1
2022-07-28T21:32:02.295Z,11.1
2022-07-28T21:36:42.489Z,11
2022-07-28T21:41:42.495Z,11.1
2022-07-28T21:46:52.782Z,10.9
2022-07-28T21:52:42.521Z,10.9
2022-07-28T21:57:52.771Z,10.8
2022-07-28T22:02:52.811Z,10.6
2022-07-28T22:08:42.516Z,10.5
2022-07-28T22:13:52.783Z,10.5
2022-07-28T22:18:52.799Z,10.4
2022-07-28T22:24:42.515Z,10.5
2022-07-28T22:29:52.768Z,10.3
2022-07-28T22:35:42.528Z,10.2
2022-07-28T22:40:52.766Z,10.4
2022-07-28T22:45:52.819Z,10.3
2022-07-28T22:50:52.805Z,10.1
2022-07-28T22:56:01.142Z,9.7
2022-07-28T23:01:42.610Z,9.7
2022-07-28T23:06:42.630Z,9.7
2022-07-28T23:11:59.604Z,9.7
2022-07-28T23:17:01.155Z,9.5
2022-07-28T23:22:42.638Z,9.3
2022-07-28T23:28:01.164Z,9.4
2022-07-28T23:33:55.752Z,9.6
2022-07-28T23:39:01.145Z,9.6
2022-07-28T23:44:01.150Z,9.4
2022-07-28T23:49:42.633Z,9
2022-07-28T23:54:42.658Z,9.3
